createdAt,value
2019-05-02T00:03:46.467Z,100837.43
2019-05-02T00:08:51.870Z,100830.35
2019-05-02T00:13:57.598Z,100832.14
2019-05-02T00:19:03.050Z,100831.10
2019-05-02T00:24:10.103Z,100826.72
2019-05-02T00:29:19.032Z,100831.91
2019-05-02T00:34:23.053Z,100839.09
2019-05-02T00:39:28.473Z,100832.80
2019-05-02T00:44:33.908Z,100826.84
2019-05-02T00:49:39.514Z,100829.16
2019-05-02T00:54:44.973Z,100825.59
2019-05-02T00:59:50.387Z,100822.10
2019-05-02T01:04:59.231Z,100815.66
2019-05-02T01:10:03.268Z,100819.09
2019-05-02T01:15:09.749Z,100804.60
2019-05-02T01:20:15.261Z,100805.58
2019-05-02T01:25:20.669Z,100802.66
2019-05-02T01:30:44.779Z,100801.84
2019-05-02T01:36:15.105Z,100799.55
2019-05-02T01:41:23.922Z,100791.58
2019-05-02T01:46:27.899Z,100791.03
2019-05-02T01:51:36.458Z,100789.45
2019-05-02T01:56:40.802Z,100794.79
2019-05-02T02:01:47.202Z,100792.27
2019-05-02T02:06:52.653Z,100790.08
2019-05-02T02:11:58.167Z,100790.33
2019-05-02T02:17:04.917Z,100794.09
2019-05-02T02:22:39.263Z,100794.05
2019-05-02T02:27:45.654Z,100792.74
2019-05-02T02:32:51.698Z,100791.36
2019-05-02T02:38:03.775Z,100786.10
2019-05-02T02:43:30.365Z,100779.81
2019-05-02T02:48:16.464Z,100783.17
2019-05-02T02:53:31.309Z,100782.92
2019-05-02T02:58:45.859Z,100779.27
2019-05-02T03:03:44.015Z,100770.58
2019-05-02T03:08:49.489Z,100765.78
2019-05-02T03:14:07.586Z,100764.92
2019-05-02T03:19:14.767Z,100768.08
2019-05-02T03:24:16.164Z,100751.28
2019-05-02T03:29:21.652Z,100755.30
2019-05-02T03:34:44.890Z,100746.17
2019-05-02T03:39:34.515Z,100747.20
2019-05-02T03:44:40.044Z,100743.28
2019-05-02T03:49:48.706Z,100738.95
2019-05-02T03:54:52.874Z,100729.44
2019-05-02T03:59:58.402Z,100732.52
2019-05-02T04:05:04.026Z,100738.95
2019-05-02T04:10:13.337Z,100732.21
2019-05-02T04:15:16.795Z,100725.29
2019-05-02T04:20:22.361Z,100729.79
2019-05-02T04:25:33.413Z,100729.99
2019-05-02T04:30:34.915Z,100727.97
2019-05-02T04:35:40.412Z,100733.07
2019-05-02T04:40:48.918Z,100734.77
2019-05-02T04:45:57.409Z,100739.38
2019-05-02T04:51:10.155Z,100739.31
2019-05-02T04:56:10.583Z,100731.67
2019-05-02T05:01:14.914Z,100733.04
2019-05-02T05:06:20.304Z,100732.37
2019-05-02T05:11:27.432Z,100740.41
2019-05-02T05:16:32.996Z,100742.89
2019-05-02T05:21:38.416Z,100744.02
2019-05-02T05:26:47.666Z,100747.15
2019-05-02T05:31:55.193Z,100749.71
2019-05-02T05:37:03.505Z,100749.42
2019-05-02T05:42:10.321Z,100751.79
2019-05-02T05:47:17.686Z,100748.08
2019-05-02T05:52:21.916Z,100748.86
2019-05-02T05:57:27.976Z,100750.05
2019-05-02T06:02:50.081Z,100753.55
2019-05-02T06:07:43.372Z,100752.47
2019-05-02T06:12:47.808Z,100749.14
2019-05-02T06:17:53.343Z,100743.34
2019-05-02T06:22:59.964Z,100743.50
2019-05-02T06:28:06.782Z,100752.86
2019-05-02T06:33:12.467Z,100746.02
2019-05-02T06:38:21.665Z,100745.31
2019-05-02T06:43:25.059Z,100742.36
2019-05-02T06:48:30.618Z,100738.83
2019-05-02T06:53:36.149Z,100731.55
2019-05-02T06:58:43.230Z,100727.48
2019-05-02T07:03:48.884Z,100723.74
2019-05-02T07:08:54.377Z,100716.96
2019-05-02T07:14:12.407Z,100711.50
2019-05-02T07:19:27.517Z,100721.23
2019-05-02T07:24:31.120Z,100723.53
2019-05-02T07:29:37.509Z,100713.45
2019-05-02T07:34:44.291Z,100718.27
2019-05-02T07:39:50.223Z,100715.11
2019-05-02T07:44:55.721Z,100721.30
2019-05-02T07:50:05.252Z,100724.22
2019-05-02T07:55:10.149Z,100720.98
2019-05-02T08:00:15.728Z,100723.45
2019-05-02T08:05:23.695Z,100723.44
2019-05-02T08:10:28.370Z,100718.45
2019-05-02T08:15:33.845Z,100715.55
2019-05-02T08:20:39.471Z,100720.80
2019-05-02T08:25:45.387Z,100708.77
2019-05-02T08:30:55.351Z,100706.95
2019-05-02T08:36:00.776Z,100700.14
2019-05-02T08:41:06.208Z,100708.63
2019-05-02T08:46:14.476Z,100702.97
2019-05-02T08:51:19.025Z,100681.21
2019-05-02T08:56:24.522Z,100651.75
2019-05-02T09:01:35.357Z,100647.59
2019-05-02T09:06:37.551Z,100641.66
2019-05-02T09:11:48.232Z,100647.87
2019-05-02T09:16:52.336Z,100642.27
2019-05-02T09:21:58.258Z,100630.55
2019-05-02T09:27:03.961Z,100627.03
2019-05-02T09:32:09.952Z,100624.56
2019-05-02T09:37:15.731Z,100604.43
2019-05-02T09:42:21.775Z,100600.35
2019-05-02T09:47:32.427Z,100598.03
2019-05-02T09:52:39.682Z,100590.56
2019-05-02T09:57:42.869Z,100596.52
2019-05-02T10:02:48.406Z,100593.18
2019-05-02T10:07:57.576Z,100579.53
2019-05-02T10:13:02.802Z,100574.11
2019-05-02T10:18:12.084Z,100576.01
2019-05-02T10:23:19.623Z,100576.69
2019-05-02T10:28:23.836Z,100563.17
2019-05-02T10:33:33.689Z,100550.73
2019-05-02T10:38:36.689Z,100546.91
2019-05-02T10:43:42.441Z,100542.12
2019-05-02T10:48:57.254Z,100535.91
2019-05-02T10:54:03.107Z,100537.42
2019-05-02T10:59:08.600Z,100524.31
2019-05-02T11:04:15.640Z,100524.37
2019-05-02T11:09:22.578Z,100517.27
2019-05-02T11:14:43.003Z,100515.64
2019-05-02T11:19:52.342Z,100497.16
2019-05-02T11:24:57.973Z,100502.98
2019-05-02T11:30:03.540Z,100501.48
2019-05-02T11:35:12.183Z,100490.58
2019-05-02T11:40:17.787Z,100488.26
2019-05-02T11:45:23.960Z,100480.25
2019-05-02T11:50:31.900Z,100474.81
2019-05-02T11:55:36.855Z,100462.25
2019-05-02T12:00:45.430Z,100469.59
2019-05-02T12:05:52.187Z,100464.12
2019-05-02T12:10:57.402Z,100461.23
2019-05-02T12:16:03.944Z,100456.95
2019-05-02T12:21:09.549Z,100456.59
2019-05-02T12:26:15.346Z,100451.14
2019-05-02T12:31:28.020Z,100444.04
2019-05-02T12:36:33.621Z,100439.92
2019-05-02T12:41:39.045Z,100435.12
2019-05-02T12:46:44.523Z,100436.28
2019-05-02T12:51:50.055Z,100430.70
2019-05-02T12:56:55.545Z,100428.36
2019-05-02T13:02:02.712Z,100420.00
2019-05-02T13:07:08.221Z,100412.63
2019-05-02T13:12:18.323Z,100410.56
2019-05-02T13:17:23.806Z,100399.77
2019-05-02T13:22:54.341Z,100400.86
2019-05-02T13:28:01.836Z,100382.56
2019-05-02T13:33:09.606Z,100375.73
2019-05-02T13:38:17.860Z,100369.06
2019-05-02T13:43:26.271Z,100364.44
2019-05-02T13:48:32.375Z,100353.10
2019-05-02T13:53:43.886Z,100345.92
2019-05-02T13:58:49.555Z,100338.61
2019-05-02T14:03:55.824Z,100333.72
2019-05-02T14:09:22.504Z,100321.91
2019-05-02T14:14:27.603Z,100328.59
2019-05-02T14:19:33.158Z,100324.19
2019-05-02T14:24:38.618Z,100319.14
2019-05-02T14:29:44.239Z,100312.69
2019-05-02T14:35:04.738Z,100311.56
2019-05-02T14:40:20.201Z,100304.36
2019-05-02T14:45:30.874Z,100306.78
2019-05-02T14:50:36.548Z,100311.27
2019-05-02T14:55:42.252Z,100305.20
2019-05-02T15:00:49.394Z,100309.15
2019-05-02T15:05:59.087Z,100309.62
2019-05-02T15:11:03.450Z,100306.48
2019-05-02T15:16:10.470Z,100303.85
2019-05-02T15:21:22.636Z,100298.47
2019-05-02T15:26:31.271Z,100295.52
2019-05-02T15:31:37.135Z,100296.38
2019-05-02T15:36:45.837Z,100296.66
2019-05-02T15:41:49.946Z,100289.43
2019-05-02T15:46:58.438Z,100287.19
2019-05-02T15:52:03.144Z,100296.94
2019-05-02T15:57:08.681Z,100308.78
2019-05-02T16:02:21.889Z,100358.63
2019-05-02T16:07:24.809Z,100353.39
2019-05-02T16:12:32.165Z,100359.41
2019-05-02T16:17:37.556Z,100361.48
2019-05-02T16:22:46.407Z,100376.33
2019-05-02T16:27:50.354Z,100369.70
2019-05-02T16:33:00.148Z,100377.15
2019-05-02T16:38:05.867Z,100372.59
2019-05-02T16:43:12.169Z,100377.75
2019-05-02T16:48:17.825Z,100391.62
2019-05-02T16:53:26.102Z,100386.78
2019-05-02T16:58:33.373Z,100391.30
2019-05-02T17:03:38.267Z,100394.08
2019-05-02T17:08:57.449Z,100398.47
2019-05-02T17:14:02.234Z,100389.92
2019-05-02T17:19:07.914Z,100391.11
2019-05-02T17:24:17.288Z,100395.24
2019-05-02T17:29:21.339Z,100396.07
2019-05-02T17:34:32.487Z,100398.39
2019-05-02T17:39:37.333Z,100398.92
2019-05-02T17:44:43.840Z,100406.70
2019-05-02T17:49:50.042Z,100414.78
2019-05-02T17:54:57.367Z,100412.74
2019-05-02T18:00:02.991Z,100414.64
2019-05-02T18:05:08.492Z,100416.41
2019-05-02T18:10:19.329Z,100423.48
2019-05-02T18:15:22.807Z,100425.85
2019-05-02T18:20:28.385Z,100427.49
2019-05-02T18:25:33.856Z,100433.87
2019-05-02T18:30:39.430Z,100426.02
2019-05-02T18:35:46.912Z,100432.02
2019-05-02T18:40:53.008Z,100439.82
2019-05-02T18:46:06.010Z,100444.30
2019-05-02T18:51:07.122Z,100446.40
2019-05-02T18:56:12.645Z,100446.27
2019-05-02T19:01:20.858Z,100449.61
2019-05-02T19:06:27.891Z,100452.77
2019-05-02T19:11:35.290Z,100455.61
2019-05-02T19:16:39.781Z,100455.81
2019-05-02T19:21:45.483Z,100470.58
2019-05-02T19:26:53.386Z,100463.65
2019-05-02T19:31:58.726Z,100465.67
2019-05-02T19:37:04.652Z,100461.22
2019-05-02T19:42:12.155Z,100464.70
2019-05-02T19:47:17.781Z,100468.56
2019-05-02T19:52:23.461Z,100469.33
2019-05-02T19:57:29.058Z,100467.39
2019-05-02T20:02:37.427Z,100476.03
2019-05-02T20:07:42.642Z,100476.27
2019-05-02T20:12:50.453Z,100472.05
2019-05-02T20:18:00.570Z,100471.95
2019-05-02T20:23:15.140Z,100465.74
2019-05-02T20:28:10.506Z,100468.77
2019-05-02T20:33:15.959Z,100468.78
2019-05-02T20:38:22.104Z,100476.81
2019-05-02T20:43:27.767Z,100473.24
2019-05-02T20:48:33.690Z,100479.23
2019-05-02T20:53:39.270Z,100483.70
2019-05-02T20:58:44.991Z,100485.02
2019-05-02T21:03:52.113Z,100494.53
2019-05-02T21:09:09.123Z,100492.22
2019-05-02T21:14:14.772Z,100493.14
2019-05-02T21:19:21.738Z,100487.87
2019-05-02T21:24:27.335Z,100489.70
2019-05-02T21:29:32.864Z,100501.27
2019-05-02T21:34:38.328Z,100507.48
2019-05-02T21:39:43.784Z,100513.30
2019-05-02T21:44:49.289Z,100517.82
2019-05-02T21:50:04.559Z,100517.63
2019-05-02T21:55:17.333Z,100521.33
2019-05-02T22:00:42.136Z,100533.95
2019-05-02T22:05:47.783Z,100540.69
2019-05-02T22:10:53.231Z,100540.69
2019-05-02T22:15:58.679Z,100550.83
2019-05-02T22:21:04.194Z,100559.16
2019-05-02T22:26:09.703Z,100555.20
2019-05-02T22:31:15.184Z,100561.84
2019-05-02T22:36:21.803Z,100565.33
2019-05-02T22:41:27.250Z,100568.98
2019-05-02T22:46:43.723Z,100575.73
2019-05-02T22:51:49.285Z,100581.11
2019-05-02T22:56:54.785Z,100580.98
2019-05-02T23:02:01.986Z,100582.73
2019-05-02T23:07:07.638Z,100586.08
2019-05-02T23:12:13.228Z,100580.99
2019-05-02T23:17:18.852Z,100590.30
2019-05-02T23:22:24.316Z,100598.41
2019-05-02T23:27:54.696Z,100594.39
2019-05-02T23:33:02.195Z,100590.69
2019-05-02T23:38:07.566Z,100593.23
2019-05-02T23:43:13.039Z,100596.42
2019-05-02T23:48:18.436Z,100598.66
2019-05-02T23:53:23.859Z,100600.30
2019-05-02T23:58:29.283Z,100599.33
